createdAt,value
2019-05-28T00:03:00.648Z,87.80
2019-05-28T00:07:02.808Z,87.72
2019-05-28T00:11:04.847Z,87.58
2019-05-28T00:15:07.264Z,87.82
2019-05-28T00:19:09.755Z,87.84
2019-05-28T00:23:11.851Z,88.04
2019-05-28T00:27:13.971Z,88.14
2019-05-28T00:31:17.133Z,88.31
2019-05-28T00:35:19.546Z,88.41
2019-05-28T00:39:21.631Z,88.55
2019-05-28T00:43:24.036Z,88.62
2019-05-28T00:47:26.408Z,88.68
2019-05-28T00:51:28.909Z,88.74
2019-05-28T00:55:31.147Z,88.79
2019-05-28T00:59:34.735Z,88.92
2019-05-28T01:03:36.822Z,88.95
2019-05-28T01:07:38.939Z,89.00
2019-05-28T01:11:41.129Z,89.09
2019-05-28T01:15:43.551Z,89.45
2019-05-28T01:19:45.677Z,89.63
2019-05-28T01:23:47.982Z,89.77
2019-05-28T01:27:50.121Z,90.10
2019-05-28T01:31:52.258Z,90.33
2019-05-28T01:35:54.358Z,90.56
2019-05-28T01:39:56.865Z,90.76
2019-05-28T01:43:58.908Z,91.06
2019-05-28T01:48:01.051Z,91.15
2019-05-28T01:52:03.199Z,91.24
2019-05-28T01:56:05.349Z,91.29
2019-05-28T02:00:07.918Z,91.34
2019-05-28T02:04:10.381Z,91.32
2019-05-28T02:08:12.509Z,91.44
2019-05-28T02:12:15.752Z,91.47
2019-05-28T02:16:18.103Z,91.66
2019-05-28T02:20:21.583Z,91.72
2019-05-28T02:24:23.896Z,91.78
2019-05-28T02:28:26.283Z,91.70
2019-05-28T02:32:28.144Z,91.69
2019-05-28T02:36:30.399Z,91.82
2019-05-28T02:40:32.388Z,91.97
2019-05-28T02:44:34.516Z,92.01
2019-05-28T02:48:36.635Z,92.06
2019-05-28T02:52:39.569Z,92.10
2019-05-28T02:56:43.744Z,92.20
2019-05-28T03:00:46.988Z,92.24
2019-05-28T03:04:49.449Z,92.55
2019-05-28T03:08:53.561Z,92.66
2019-05-28T03:12:55.716Z,92.87
2019-05-28T03:17:00.616Z,92.88
2019-05-28T03:21:04.475Z,92.75
2019-05-28T03:25:07.373Z,92.86
2019-05-28T03:29:09.653Z,93.04
2019-05-28T03:33:12.956Z,93.18
2019-05-28T03:37:15.415Z,93.07
2019-05-28T03:41:17.548Z,93.25
2019-05-28T03:45:19.632Z,93.28
2019-05-28T03:49:21.769Z,93.23
2019-05-28T03:53:23.921Z,93.18
2019-05-28T03:57:26.029Z,93.37
2019-05-28T04:01:28.641Z,93.21
2019-05-28T04:05:31.175Z,93.29
2019-05-28T04:09:34.026Z,93.18
2019-05-28T04:13:36.468Z,93.16
2019-05-28T04:17:38.815Z,93.08
2019-05-28T04:21:41.086Z,92.98
2019-05-28T04:25:43.180Z,92.73
2019-05-28T04:29:45.314Z,92.29
2019-05-28T04:33:47.437Z,92.37
2019-05-28T04:37:50.597Z,91.72
2019-05-28T04:41:52.772Z,91.72
2019-05-28T04:45:55.149Z,91.25
2019-05-28T04:49:57.466Z,91.31
2019-05-28T04:53:59.953Z,91.51
2019-05-28T04:58:02.080Z,91.29
2019-05-28T05:02:04.711Z,89.70
2019-05-28T05:06:07.006Z,90.47
2019-05-28T05:10:09.848Z,90.51
2019-05-28T05:14:11.899Z,89.52
2019-05-28T05:18:13.955Z,89.50
2019-05-28T05:22:15.948Z,87.69
2019-05-28T05:26:20.109Z,88.16
2019-05-28T05:30:23.589Z,87.54
2019-05-28T05:34:28.662Z,87.22
2019-05-28T05:38:30.733Z,87.64
2019-05-28T05:42:32.923Z,87.21
2019-05-28T05:46:35.086Z,86.24
2019-05-28T05:50:37.214Z,83.54
2019-05-28T05:54:39.391Z,83.13
2019-05-28T05:58:42.441Z,83.94
2019-05-28T06:02:44.472Z,81.74
2019-05-28T06:06:46.607Z,82.83
2019-05-28T06:10:48.641Z,81.86
2019-05-28T06:14:50.854Z,80.46
2019-05-28T06:18:52.998Z,79.98
2019-05-28T06:22:55.026Z,76.03
2019-05-28T06:26:57.215Z,76.48
2019-05-28T06:30:59.623Z,75.81
2019-05-28T06:35:01.746Z,77.61
2019-05-28T06:39:03.917Z,77.38
2019-05-28T06:43:05.870Z,77.50
2019-05-28T06:47:07.995Z,76.17
2019-05-28T06:51:10.134Z,75.54
2019-05-28T06:55:12.385Z,73.43
2019-05-28T06:59:14.498Z,75.58
2019-05-28T07:03:16.637Z,74.71
2019-05-28T07:07:18.752Z,74.62
2019-05-28T07:11:20.874Z,74.78
2019-05-28T07:15:24.321Z,74.14
2019-05-28T07:19:26.408Z,75.60
2019-05-28T07:23:28.479Z,75.02
2019-05-28T07:27:30.893Z,74.02
2019-05-28T07:31:32.971Z,73.73
2019-05-28T07:35:45.390Z,72.00
2019-05-28T07:39:39.072Z,73.43
2019-05-28T07:43:41.349Z,72.38
2019-05-28T07:47:43.354Z,72.58
2019-05-28T07:51:45.824Z,72.28
2019-05-28T07:55:48.180Z,73.44
2019-05-28T07:59:50.221Z,73.41
2019-05-28T08:03:52.344Z,70.93
2019-05-28T08:07:54.630Z,72.94
2019-05-28T08:11:56.807Z,73.02
2019-05-28T08:16:17.000Z,72.88
2019-05-28T08:20:02.688Z,74.71
2019-05-28T08:24:04.886Z,74.39
2019-05-28T08:28:19.178Z,75.47
2019-05-28T08:32:11.113Z,75.52
2019-05-28T08:36:13.252Z,76.17
2019-05-28T08:40:16.575Z,76.03
2019-05-28T08:44:18.542Z,75.88
2019-05-28T08:48:20.516Z,76.62
2019-05-28T08:52:22.754Z,76.83
2019-05-28T08:56:24.819Z,76.73
2019-05-28T09:00:45.946Z,75.80
2019-05-28T09:04:48.282Z,73.57
2019-05-28T09:08:50.643Z,74.39
2019-05-28T09:12:52.784Z,73.71
2019-05-28T09:16:54.902Z,73.33
2019-05-28T09:20:57.204Z,72.63
2019-05-28T09:24:59.404Z,71.46
2019-05-28T09:29:01.678Z,70.23
2019-05-28T09:33:05.017Z,71.68
2019-05-28T09:37:07.411Z,70.63
2019-05-28T09:41:09.434Z,73.08
2019-05-28T09:45:22.542Z,72.04
2019-05-28T09:49:15.942Z,72.10
2019-05-28T09:53:17.984Z,69.20
2019-05-28T09:57:19.777Z,68.91
2019-05-28T10:01:21.998Z,66.83
2019-05-28T10:05:23.988Z,67.30
2019-05-28T10:09:25.892Z,66.87
2019-05-28T10:13:38.346Z,65.76
2019-05-28T10:17:32.038Z,64.78
2019-05-28T10:21:34.223Z,65.12
2019-05-28T10:25:36.388Z,64.14
2019-05-28T10:29:38.559Z,61.46
2019-05-28T10:33:40.850Z,63.15
2019-05-28T10:37:42.987Z,61.25
2019-05-28T10:41:45.238Z,63.06
2019-05-28T10:45:47.470Z,61.54
2019-05-28T10:49:51.109Z,60.71
2019-05-28T10:53:53.339Z,60.58
2019-05-28T10:57:55.256Z,62.55
2019-05-28T11:01:57.396Z,59.87
2019-05-28T11:06:00.429Z,58.59
2019-05-28T11:10:02.595Z,56.78
2019-05-28T11:14:06.011Z,56.72
2019-05-28T11:18:08.520Z,59.00
2019-05-28T11:22:11.131Z,55.92
2019-05-28T11:26:13.251Z,53.01
2019-05-28T11:30:18.354Z,55.25
2019-05-28T11:34:20.601Z,56.07
2019-05-28T11:38:22.693Z,53.04
2019-05-28T11:42:24.818Z,55.89
2019-05-28T11:46:27.471Z,56.18
2019-05-28T11:50:29.691Z,54.59
2019-05-28T11:54:32.031Z,52.00
2019-05-28T11:58:34.144Z,52.95
2019-05-28T12:02:36.395Z,55.59
2019-05-28T12:06:38.571Z,56.00
2019-05-28T12:10:40.771Z,55.38
2019-05-28T12:14:44.057Z,56.82
2019-05-28T12:18:46.326Z,57.17
2019-05-28T12:22:48.456Z,56.24
2019-05-28T12:26:50.616Z,56.00
2019-05-28T12:30:52.619Z,55.88
2019-05-28T12:34:54.635Z,55.55
2019-05-28T12:38:56.869Z,54.31
2019-05-28T12:43:00.645Z,57.07
2019-05-28T12:47:02.752Z,57.40
2019-05-28T12:51:05.021Z,55.80
2019-05-28T12:55:07.815Z,57.82
2019-05-28T12:59:09.761Z,57.58
2019-05-28T13:03:12.572Z,58.45
2019-05-28T13:07:14.337Z,58.46
2019-05-28T13:11:16.182Z,60.50
2019-05-28T13:15:19.826Z,60.25
2019-05-28T13:19:21.577Z,60.29
2019-05-28T13:23:23.606Z,60.63
2019-05-28T13:27:25.612Z,62.15
2019-05-28T13:31:27.479Z,61.51
2019-05-28T13:35:30.011Z,61.05
2019-05-28T13:39:32.435Z,60.98
2019-05-28T13:43:34.715Z,61.79
2019-05-28T13:47:36.901Z,61.49
2019-05-28T13:51:38.998Z,62.24
2019-05-28T13:55:41.328Z,61.78
2019-05-28T13:59:43.112Z,61.55
2019-05-28T14:03:45.434Z,60.04
2019-05-28T14:07:47.198Z,60.79
2019-05-28T14:11:49.018Z,61.22
2019-05-28T14:15:50.837Z,60.41
2019-05-28T14:19:52.957Z,59.76
2019-05-28T14:23:54.707Z,60.95
2019-05-28T14:27:56.526Z,60.39
2019-05-28T14:31:58.282Z,59.73
2019-05-28T14:36:00.126Z,60.27
2019-05-28T14:40:03.014Z,59.20
2019-05-28T14:44:05.038Z,60.47
2019-05-28T14:48:06.907Z,59.01
2019-05-28T14:52:08.733Z,59.71
2019-05-28T14:56:10.739Z,60.40
2019-05-28T15:00:14.681Z,59.82
2019-05-28T15:04:16.857Z,59.92
2019-05-28T15:08:18.931Z,60.63
2019-05-28T15:12:20.906Z,61.39
2019-05-28T15:16:22.906Z,61.09
2019-05-28T15:20:25.203Z,61.25
2019-05-28T15:24:27.366Z,60.98
2019-05-28T15:28:29.348Z,61.93
2019-05-28T15:32:31.434Z,61.15
2019-05-28T15:36:33.465Z,62.21
2019-05-28T15:40:35.697Z,62.37
2019-05-28T15:44:37.993Z,64.18
2019-05-28T15:48:40.135Z,64.44
2019-05-28T15:52:42.511Z,65.84
2019-05-28T15:56:46.594Z,66.30
2019-05-28T16:00:48.911Z,65.88
2019-05-28T16:04:51.015Z,66.60
2019-05-28T16:08:53.361Z,66.21
2019-05-28T16:12:55.572Z,66.56
2019-05-28T16:16:57.600Z,68.34
2019-05-28T16:20:59.718Z,68.38
2019-05-28T16:25:01.937Z,69.20
2019-05-28T16:29:04.080Z,68.56
2019-05-28T16:33:06.127Z,68.60
2019-05-28T16:37:08.116Z,70.61
2019-05-28T16:41:10.380Z,71.57
2019-05-28T16:45:13.825Z,72.07
2019-05-28T16:49:15.960Z,72.67
2019-05-28T16:53:18.010Z,72.98
2019-05-28T16:57:20.080Z,74.53
2019-05-28T17:01:23.228Z,74.41
2019-05-28T17:05:25.290Z,75.43
2019-05-28T17:09:27.426Z,75.08
2019-05-28T17:13:29.572Z,75.28
2019-05-28T17:17:31.646Z,77.06
2019-05-28T17:21:33.807Z,77.02
2019-05-28T17:25:36.146Z,76.07
2019-05-28T17:29:38.349Z,76.78
2019-05-28T17:33:40.531Z,76.87
2019-05-28T17:37:42.685Z,78.86
2019-05-28T17:41:46.287Z,78.46
2019-05-28T17:45:49.387Z,78.97
2019-05-28T17:49:52.575Z,79.70
2019-05-28T17:53:54.889Z,79.65
2019-05-28T17:57:57.222Z,80.00
2019-05-28T18:01:59.531Z,80.95
2019-05-28T18:06:01.705Z,80.79
2019-05-28T18:10:03.940Z,81.38
2019-05-28T18:14:06.272Z,82.32
2019-05-28T18:18:08.310Z,82.64
2019-05-28T18:22:10.510Z,83.32
2019-05-28T18:26:12.826Z,83.22
2019-05-28T18:30:16.271Z,83.69
2019-05-28T18:34:18.471Z,83.72
2019-05-28T18:38:20.847Z,84.73
2019-05-28T18:42:23.231Z,84.30
2019-05-28T18:46:26.969Z,84.80
2019-05-28T18:50:29.014Z,84.37
2019-05-28T18:54:31.121Z,84.52
2019-05-28T18:58:35.699Z,82.90
2019-05-28T19:02:37.530Z,84.23
2019-05-28T19:06:39.798Z,83.89
2019-05-28T19:10:41.983Z,84.44
2019-05-28T19:14:44.106Z,84.48
2019-05-28T19:18:46.165Z,84.44
2019-05-28T19:22:48.265Z,85.49
2019-05-28T19:26:50.506Z,86.27
2019-05-28T19:30:52.837Z,86.35
2019-05-28T19:34:55.224Z,86.72
2019-05-28T19:38:58.720Z,87.04
2019-05-28T19:43:00.786Z,87.73
2019-05-28T19:47:03.076Z,87.89
2019-05-28T19:51:06.516Z,88.37
2019-05-28T19:55:09.018Z,88.58
2019-05-28T19:59:11.307Z,88.74
2019-05-28T20:03:14.359Z,88.79
2019-05-28T20:07:16.807Z,88.84
2019-05-28T20:11:18.947Z,89.29
2019-05-28T20:15:23.717Z,89.32
2019-05-28T20:19:25.430Z,89.32
2019-05-28T20:23:27.574Z,89.53
2019-05-28T20:27:29.822Z,89.62
2019-05-28T20:31:32.118Z,89.84
2019-05-28T20:35:34.367Z,90.02
2019-05-28T20:39:36.300Z,90.33
2019-05-28T20:43:38.609Z,90.40
2019-05-28T20:47:40.834Z,90.49
2019-05-28T20:51:42.994Z,90.66
2019-05-28T20:55:45.282Z,90.74
2019-05-28T20:59:47.462Z,90.73
2019-05-28T21:03:49.806Z,90.80
2019-05-28T21:07:53.103Z,90.83
2019-05-28T21:11:56.656Z,90.83
2019-05-28T21:15:59.052Z,91.01
2019-05-28T21:20:01.237Z,90.99
2019-05-28T21:24:03.365Z,91.18
2019-05-28T21:28:05.496Z,91.15
2019-05-28T21:32:07.596Z,91.21
2019-05-28T21:36:09.774Z,91.37
2019-05-28T21:40:12.795Z,91.34
2019-05-28T21:44:15.134Z,91.27
2019-05-28T21:48:17.261Z,91.17
2019-05-28T21:52:19.679Z,91.28
2019-05-28T21:56:21.946Z,91.44
2019-05-28T22:00:37.748Z,91.22
2019-05-28T22:04:41.418Z,91.39
2019-05-28T22:08:43.831Z,91.40
2019-05-28T22:12:46.286Z,91.53
2019-05-28T22:16:48.790Z,91.63
2019-05-28T22:20:53.308Z,91.71
2019-05-28T22:24:56.329Z,91.72
2019-05-28T22:28:59.449Z,91.71
2019-05-28T22:33:02.302Z,91.62
2019-05-28T22:37:04.639Z,91.73
2019-05-28T22:41:08.598Z,91.80
2019-05-28T22:45:11.208Z,91.85
2019-05-28T22:49:14.054Z,91.91
2019-05-28T22:53:16.373Z,92.05
2019-05-28T22:57:18.589Z,92.05
2019-05-28T23:01:20.683Z,92.00
2019-05-28T23:05:22.886Z,92.12
2019-05-28T23:09:25.021Z,91.97
2019-05-28T23:13:27.158Z,91.98
2019-05-28T23:17:29.376Z,92.06
2019-05-28T23:21:31.711Z,92.02
2019-05-28T23:25:33.929Z,92.10
2019-05-28T23:29:36.048Z,92.17
2019-05-28T23:33:38.542Z,92.16
2019-05-28T23:37:40.954Z,92.31
2019-05-28T23:41:43.258Z,92.41
2019-05-28T23:45:45.367Z,92.47
2019-05-28T23:49:47.445Z,92.42
2019-05-28T23:53:49.962Z,92.61
2019-05-28T23:57:52.122Z,92.56
